createdAt,value
2022-07-25T00:02:30.234Z,100946.28
2022-07-25T00:19:21.848Z,100927.63
2022-07-25T00:45:21.660Z,101061.22
2022-07-25T00:51:01.710Z,101078.53
2022-07-25T00:54:04.641Z,100859.78
2022-07-25T01:00:24.819Z,101065.75
2022-07-25T01:02:58.057Z,101052.13
2022-07-25T01:13:03.883Z,101007.75
2022-07-25T01:16:02.614Z,101018.72
2022-07-25T01:21:59.323Z,101026.75
2022-07-25T01:24:26.139Z,101050.81
2022-07-25T01:26:52.814Z,101034.06
2022-07-25T01:29:19.455Z,101032.00
2022-07-25T01:31:46.364Z,101055.63
2022-07-25T01:34:13.086Z,101026.81
2022-07-25T01:36:39.768Z,101036.13
2022-07-25T01:39:09.034Z,101046.19
2022-07-25T01:41:35.857Z,101044.16
2022-07-25T01:44:02.740Z,101017.09
2022-07-25T01:46:29.945Z,101043.22
2022-07-25T01:48:56.770Z,101029.03
2022-07-25T01:51:23.654Z,101034.41
2022-07-25T01:53:53.433Z,101023.38
2022-07-25T01:56:22.506Z,101007.41
2022-07-25T01:58:49.401Z,100994.47
2022-07-25T02:01:21.842Z,101017.31
2022-07-25T02:04:04.387Z,100946.78
2022-07-25T02:06:49.904Z,100985.72
2022-07-25T02:09:43.402Z,101003.63
2022-07-25T02:12:24.954Z,100921.75
2022-07-25T02:15:03.549Z,100851.09
2022-07-25T02:17:49.685Z,100956.25
2022-07-25T02:20:37.336Z,100809.44
2022-07-25T02:23:26.588Z,100811.94
2022-07-25T02:26:06.058Z,100880.97
2022-07-25T02:29:16.530Z,100887.38
2022-07-25T02:42:50.401Z,100954.34
2022-07-25T02:45:34.742Z,100896.78
2022-07-25T02:48:32.385Z,100939.56
2022-07-25T02:51:20.974Z,100869.50
2022-07-25T02:59:38.577Z,100802.88
2022-07-25T03:02:16.387Z,100875.25
2022-07-25T03:05:00.983Z,100740.06
2022-07-25T03:08:02.266Z,100911.03
2022-07-25T03:27:22.753Z,100678.47
2022-07-25T03:33:09.026Z,100808.28
2022-07-25T03:38:57.474Z,100657.47
2022-07-25T03:41:35.890Z,100854.81
2022-07-25T03:44:11.219Z,100702.59
2022-07-25T03:47:20.355Z,100788.34
2022-07-25T03:56:53.607Z,100663.69
2022-07-25T03:59:26.716Z,100837.97
2022-07-25T04:08:45.622Z,100841.88
2022-07-25T04:12:16.855Z,100826.16
2022-07-25T04:15:32.812Z,100634.34
2022-07-25T04:25:22.490Z,100657.94
2022-07-25T04:37:16.156Z,100820.25
2022-07-25T04:39:42.895Z,100799.50
2022-07-25T04:42:09.530Z,100783.69
2022-07-25T04:44:36.596Z,100818.06
2022-07-25T04:47:03.662Z,100820.56
2022-07-25T04:49:30.329Z,100823.00
2022-07-25T04:51:57.021Z,100821.84
2022-07-25T04:54:25.302Z,100758.03
2022-07-25T04:56:52.296Z,100783.22
2022-07-25T04:59:19.140Z,100812.31
2022-07-25T05:01:46.153Z,100799.09
2022-07-25T05:04:12.920Z,100806.09
2022-07-25T05:06:43.063Z,100782.47
2022-07-25T05:12:53.634Z,100801.84
2022-07-25T05:15:25.911Z,100804.22
2022-07-25T05:17:53.032Z,100766.91
2022-07-25T05:20:19.890Z,100813.22
2022-07-25T05:22:48.601Z,100779.72
2022-07-25T05:25:38.437Z,100680.69
2022-07-25T05:28:29.005Z,100777.44
2022-07-25T05:30:56.205Z,100749.91
2022-07-25T05:33:23.210Z,100688.78
2022-07-25T05:35:56.850Z,100716.34
2022-07-25T05:38:23.850Z,100722.78
2022-07-25T05:40:58.631Z,100677.75
2022-07-25T05:43:27.024Z,100778.84
2022-07-25T05:46:00.488Z,100697.69
2022-07-25T05:48:31.488Z,100789.06
2022-07-25T05:51:10.422Z,100657.28
2022-07-25T05:53:45.862Z,100762.13
2022-07-25T05:56:14.249Z,100793.75
2022-07-25T05:58:45.277Z,100639.75
2022-07-25T06:01:20.910Z,100675.59
2022-07-25T06:03:47.870Z,100620.44
2022-07-25T06:06:20.989Z,100657.72
2022-07-25T06:08:47.910Z,100694.78
2022-07-25T06:11:21.746Z,100776.69
2022-07-25T06:13:54.061Z,100647.50
2022-07-25T06:16:28.589Z,100731.34
2022-07-25T06:18:55.901Z,100725.91
2022-07-25T06:21:37.362Z,100657.09
2022-07-25T06:24:08.771Z,100744.66
2022-07-25T06:26:59.307Z,100776.16
2022-07-25T06:29:31.627Z,100704.69
2022-07-25T06:32:15.914Z,100761.75
2022-07-25T06:34:43.179Z,100632.88
2022-07-25T06:37:09.920Z,100770.56
2022-07-25T06:39:36.725Z,100662.72
2022-07-25T06:42:03.688Z,100695.63
2022-07-25T06:44:44.625Z,100774.31
2022-07-25T06:47:11.940Z,100794.78
2022-07-25T06:49:39.176Z,100770.09
2022-07-25T06:52:05.969Z,100794.91
2022-07-25T06:54:32.835Z,100803.25
2022-07-25T06:56:59.513Z,100812.09
2022-07-25T06:59:26.416Z,100812.19
2022-07-25T07:01:54.717Z,100814.47
2022-07-25T07:04:21.421Z,100813.75
2022-07-25T07:06:48.126Z,100788.75
2022-07-25T07:09:14.973Z,100806.50
2022-07-25T07:11:41.698Z,100789.28
2022-07-25T07:14:08.674Z,100786.63
2022-07-25T07:16:35.914Z,100779.16
2022-07-25T07:19:04.623Z,100769.63
2022-07-25T07:21:31.715Z,100776.09
2022-07-25T07:23:58.532Z,100779.81
2022-07-25T07:26:25.296Z,100786.06
2022-07-25T07:28:52.215Z,100781.47
2022-07-25T07:31:19.277Z,100782.06
2022-07-25T07:33:46.357Z,100740.31
2022-07-25T07:36:14.606Z,100778.03
2022-07-25T07:38:41.424Z,100739.00
2022-07-25T07:41:08.255Z,100741.31
2022-07-25T07:43:34.967Z,100727.78
2022-07-25T07:46:02.014Z,100761.81
2022-07-25T07:55:10.127Z,100780.28
2022-07-25T07:57:48.811Z,100745.13
2022-07-25T08:00:32.007Z,100748.16
2022-07-25T08:03:22.098Z,100664.75
2022-07-25T08:05:51.975Z,100661.09
2022-07-25T08:08:24.129Z,100766.78
2022-07-25T08:11:15.807Z,100698.41
2022-07-25T08:13:53.870Z,100683.09
2022-07-25T08:16:24.210Z,100597.31
2022-07-25T08:18:56.744Z,100787.44
2022-07-25T08:21:28.638Z,100748.75
2022-07-25T08:23:56.729Z,100673.56
2022-07-25T08:26:25.479Z,100767.41
2022-07-25T08:29:11.108Z,100645.75
2022-07-25T08:31:40.563Z,100635.78
2022-07-25T08:34:07.873Z,100779.56
2022-07-25T08:37:04.112Z,100778.63
2022-07-25T08:39:35.494Z,100637.19
2022-07-25T08:42:11.441Z,100755.50
2022-07-25T08:44:55.976Z,100789.91
2022-07-25T08:47:30.352Z,100786.16
2022-07-25T08:50:13.961Z,100671.63
2022-07-25T08:53:35.561Z,100753.75
2022-07-25T08:56:18.850Z,100796.59
2022-07-25T08:58:50.768Z,100794.44
2022-07-25T09:01:20.876Z,100824.53
2022-07-25T09:03:50.698Z,100806.00
2022-07-25T09:06:43.837Z,100764.34
2022-07-25T09:09:36.784Z,100645.47
2022-07-25T09:15:09.145Z,100641.72
2022-07-25T09:18:03.804Z,100635.66
2022-07-25T09:20:53.713Z,100637.44
2022-07-25T09:23:42.768Z,100654.88
2022-07-25T09:26:16.574Z,100671.59
2022-07-25T09:29:16.027Z,100716.59
2022-07-25T09:32:17.471Z,100649.03
2022-07-25T09:34:50.468Z,100690.94
2022-07-25T09:40:26.312Z,100800.28
2022-07-25T09:47:00.529Z,100854.84
2022-07-25T09:49:45.378Z,100746.84
2022-07-25T09:52:17.216Z,100821.25
2022-07-25T09:54:55.881Z,100814.13
2022-07-25T09:57:46.495Z,100831.91
2022-07-25T10:00:26.412Z,100810.00
2022-07-25T10:06:50.459Z,100691.53
2022-07-25T10:09:21.269Z,100763.69
2022-07-25T10:12:10.266Z,100842.78
2022-07-25T10:14:43.294Z,100759.63
2022-07-25T10:17:31.151Z,100812.16
2022-07-25T10:20:01.247Z,100846.91
2022-07-25T10:22:56.290Z,100809.00
2022-07-25T10:25:31.225Z,100687.03
2022-07-25T10:31:14.507Z,100801.06
2022-07-25T10:34:00.604Z,100837.94
2022-07-25T10:36:48.970Z,100711.03
2022-07-25T10:39:29.626Z,100823.31
2022-07-25T10:42:01.762Z,100706.28
2022-07-25T10:44:58.730Z,100883.78
2022-07-25T10:50:53.360Z,100776.97
2022-07-25T10:53:51.169Z,100706.59
2022-07-25T10:56:27.459Z,100877.69
2022-07-25T10:59:32.623Z,100824.19
2022-07-25T11:08:19.946Z,100842.06
2022-07-25T11:16:35.300Z,100821.31
2022-07-25T11:19:19.957Z,100727.28
2022-07-25T11:22:01.537Z,100816.41
2022-07-25T11:24:44.231Z,100878.16
2022-07-25T11:27:28.649Z,100840.16
2022-07-25T11:30:20.717Z,100902.00
2022-07-25T11:33:00.084Z,100841.50
2022-07-25T11:35:55.579Z,100876.41
2022-07-25T11:38:31.001Z,100836.50
2022-07-25T11:43:53.414Z,100858.50
2022-07-25T11:46:34.339Z,100874.97
2022-07-25T11:49:15.319Z,100802.25
2022-07-25T11:51:48.497Z,100873.53
2022-07-25T11:54:36.439Z,100737.19
2022-07-25T11:57:29.950Z,100892.06
2022-07-25T12:00:24.145Z,100890.53
2022-07-25T12:03:19.386Z,100862.94
2022-07-25T12:09:05.994Z,100867.94
2022-07-25T12:12:09.282Z,100914.34
2022-07-25T12:14:53.146Z,100871.94
2022-07-25T12:21:04.101Z,100763.31
2022-07-25T12:26:26.095Z,100773.09
2022-07-25T12:28:56.919Z,100932.84
2022-07-25T12:31:43.426Z,100905.56
2022-07-25T12:34:18.864Z,100771.13
2022-07-25T12:37:04.320Z,100925.13
2022-07-25T12:40:00.190Z,100922.78
2022-07-25T12:42:42.358Z,100947.59
2022-07-25T12:45:32.275Z,100890.81
2022-07-25T12:48:14.323Z,100897.34
2022-07-25T12:50:50.938Z,100837.56
2022-07-25T12:56:47.262Z,100774.19
2022-07-25T13:02:20.995Z,100901.53
2022-07-25T13:05:04.937Z,100815.59
2022-07-25T13:07:38.420Z,100749.50
2022-07-25T13:10:37.628Z,100762.53
2022-07-25T13:13:18.635Z,100840.22
2022-07-25T13:16:07.096Z,100897.09
2022-07-25T13:18:44.311Z,100926.56
2022-07-25T13:21:25.343Z,100933.28
2022-07-25T13:24:05.080Z,100932.19
2022-07-25T13:27:06.686Z,100939.41
2022-07-25T13:32:33.578Z,100790.19
2022-07-25T13:35:20.688Z,100828.47
2022-07-25T13:38:06.209Z,100897.75
2022-07-25T13:40:59.181Z,100858.13
2022-07-25T13:43:39.127Z,100953.22
2022-07-25T13:46:27.121Z,100913.91
2022-07-25T13:49:24.162Z,100913.53
2022-07-25T13:52:28.445Z,100842.50
2022-07-25T13:55:01.854Z,100946.25
2022-07-25T13:57:45.016Z,100816.81
2022-07-25T14:00:17.133Z,100894.13
2022-07-25T14:03:19.085Z,100826.34
2022-07-25T14:06:06.694Z,100857.25
2022-07-25T14:09:09.279Z,100782.00
2022-07-25T14:17:41.581Z,100869.38
2022-07-25T14:20:35.969Z,100837.16
2022-07-25T14:23:13.701Z,100804.66
2022-07-25T14:25:54.783Z,100816.56
2022-07-25T14:28:52.796Z,100949.25
2022-07-25T14:31:23.764Z,100963.34
2022-07-25T14:34:01.286Z,100802.06
2022-07-25T14:36:43.199Z,100796.16
2022-07-25T14:39:24.728Z,100792.88
2022-07-25T14:41:59.843Z,100915.09
2022-07-25T14:47:36.339Z,100799.53
2022-07-25T14:50:24.671Z,100821.72
2022-07-25T14:52:59.358Z,100920.16
2022-07-25T14:55:35.864Z,100931.16
2022-07-25T15:01:39.851Z,100972.22
2022-07-25T15:04:14.423Z,100909.56
2022-07-25T15:09:41.268Z,100890.13
2022-07-25T15:12:28.340Z,100844.00
2022-07-25T15:15:16.428Z,100979.22
2022-07-25T15:17:49.832Z,100984.13
2022-07-25T15:20:30.814Z,100947.59
2022-07-25T15:27:18.492Z,100817.78
2022-07-25T15:33:33.739Z,100978.47
2022-07-25T15:36:10.189Z,100904.19
2022-07-25T15:49:26.649Z,100832.16
2022-07-25T15:52:20.229Z,100914.66
2022-07-25T15:58:07.638Z,100949.94
2022-07-25T16:00:49.879Z,101007.53
2022-07-25T16:04:27.843Z,100870.63
2022-07-25T16:10:31.581Z,100997.22
2022-07-25T16:19:33.253Z,100962.81
2022-07-25T16:24:53.859Z,101008.28
2022-07-25T16:30:41.854Z,100995.66
2022-07-25T16:36:34.383Z,100835.03
2022-07-25T16:49:25.523Z,100838.78
2022-07-25T16:54:59.942Z,100944.59
2022-07-25T16:57:26.642Z,101015.19
2022-07-25T16:59:53.782Z,101018.06
2022-07-25T17:02:20.695Z,100988.41
2022-07-25T17:04:53.637Z,101026.78
2022-07-25T17:07:21.840Z,101020.81
2022-07-25T17:09:48.874Z,101020.47
2022-07-25T17:12:15.640Z,101010.91
2022-07-25T17:14:42.367Z,101008.88
2022-07-25T17:17:09.187Z,100992.66
2022-07-25T17:19:36.150Z,101010.00
2022-07-25T17:22:04.523Z,101039.19
2022-07-25T17:24:33.053Z,101016.31
2022-07-25T17:27:00.541Z,101025.25
2022-07-25T17:29:36.007Z,101028.13
2022-07-25T17:32:02.859Z,101022.06
2022-07-25T17:34:30.670Z,101033.19
2022-07-25T17:36:57.404Z,101012.31
2022-07-25T17:39:25.426Z,101045.34
2022-07-25T17:41:54.037Z,100984.94
2022-07-25T17:44:20.989Z,101037.75
2022-07-25T17:46:47.858Z,101050.19
2022-07-25T17:49:14.756Z,101045.81
2022-07-25T17:51:42.045Z,101045.00
2022-07-25T17:54:10.268Z,101054.72
2022-07-25T17:56:40.862Z,101015.88
2022-07-25T17:59:09.289Z,101059.31
2022-07-25T18:01:37.452Z,101047.59
2022-07-25T18:04:06.011Z,101068.63
2022-07-25T18:06:33.391Z,101056.31
2022-07-25T18:09:00.483Z,101014.38
2022-07-25T18:11:27.332Z,101064.69
2022-07-25T18:13:54.274Z,101024.59
2022-07-25T18:16:22.955Z,101037.16
2022-07-25T18:18:49.826Z,101055.28
2022-07-25T18:21:16.527Z,101062.41
2022-07-25T18:23:43.240Z,101062.25
2022-07-25T18:26:12.064Z,101063.88
2022-07-25T18:28:38.818Z,101064.56
2022-07-25T18:31:05.988Z,101037.09
2022-07-25T18:33:34.360Z,101061.53
2022-07-25T18:36:06.950Z,101065.81
2022-07-25T18:38:34.398Z,101064.72
2022-07-25T18:41:26.472Z,101074.94
2022-07-25T18:43:48.739Z,101071.72
2022-07-25T18:46:15.951Z,101065.09
2022-07-25T18:48:45.316Z,101055.84
2022-07-25T18:51:12.133Z,101058.81
2022-07-25T18:53:39.334Z,101060.09
2022-07-25T18:56:06.399Z,101069.97
2022-07-25T18:58:33.188Z,101058.69
2022-07-25T19:01:01.338Z,101052.78
2022-07-25T19:03:28.111Z,101068.06
2022-07-25T19:06:01.265Z,101065.69
2022-07-25T19:08:32.321Z,101053.47
2022-07-25T19:10:59.153Z,101070.22
2022-07-25T19:13:48.329Z,101047.69
2022-07-25T19:16:13.416Z,101032.91
2022-07-25T19:18:41.787Z,101069.28
2022-07-25T19:21:10.014Z,101064.81
2022-07-25T19:23:37.959Z,101069.19
2022-07-25T19:26:04.985Z,101067.56
2022-07-25T19:28:31.793Z,101077.75
2022-07-25T19:30:58.992Z,101080.25
2022-07-25T19:33:25.866Z,101083.81
2022-07-25T19:36:02.150Z,101080.59
2022-07-25T19:38:30.314Z,101090.66
2022-07-25T19:40:57.061Z,101092.59
2022-07-25T19:43:27.180Z,101087.41
2022-07-25T19:45:55.026Z,101039.31
2022-07-25T19:48:21.810Z,101065.28
2022-07-25T19:50:48.536Z,101092.00
2022-07-25T19:53:15.377Z,101087.56
2022-07-25T19:55:44.154Z,101100.44
2022-07-25T19:58:10.851Z,101096.25
2022-07-25T20:00:38.372Z,101093.88
2022-07-25T20:03:05.578Z,101110.38
2022-07-25T20:05:32.798Z,101110.88
2022-07-25T20:07:59.607Z,101043.88
2022-07-25T20:10:26.759Z,101102.53
2022-07-25T20:12:59.545Z,101120.00
2022-07-25T20:15:28.429Z,101108.56
2022-07-25T20:17:56.098Z,101111.75
2022-07-25T20:20:22.926Z,101121.94
2022-07-25T20:22:49.910Z,101122.94
2022-07-25T20:25:16.916Z,101128.78
2022-07-25T20:27:43.748Z,101108.94
2022-07-25T20:30:12.886Z,101118.56
2022-07-25T20:32:39.657Z,101122.81
2022-07-25T20:35:07.439Z,101102.50
2022-07-25T20:37:34.175Z,101121.19
2022-07-25T20:40:08.637Z,101124.28
2022-07-25T20:42:36.864Z,101117.34
2022-07-25T20:45:04.083Z,101063.84
2022-07-25T20:47:35.761Z,101116.25
2022-07-25T20:50:03.990Z,101081.94
2022-07-25T20:52:30.880Z,101134.66
2022-07-25T20:54:57.832Z,101141.75
2022-07-25T20:57:24.603Z,101099.84
2022-07-25T20:59:51.524Z,101115.66
2022-07-25T21:02:18.572Z,101142.78
2022-07-25T21:04:59.098Z,101107.31
2022-07-25T21:07:25.988Z,101127.81
2022-07-25T21:13:57.894Z,100948.41
2022-07-25T21:17:01.752Z,100981.75
2022-07-25T21:23:39.347Z,100973.84
2022-07-25T21:26:37.580Z,100936.94
2022-07-25T21:35:25.615Z,101133.88
2022-07-25T21:41:05.124Z,100993.53
2022-07-25T21:43:56.860Z,101093.72
2022-07-25T21:47:03.061Z,101105.63
2022-07-25T21:50:19.309Z,101146.47
2022-07-25T21:53:38.741Z,101001.28
2022-07-25T22:00:33.437Z,101039.03
2022-07-25T22:09:51.919Z,101151.47
2022-07-25T22:12:23.838Z,101051.91
2022-07-25T22:20:56.631Z,101017.38
2022-07-25T22:26:40.955Z,101161.00
2022-07-25T22:29:55.513Z,101117.44
2022-07-25T22:32:31.466Z,100985.00
2022-07-25T22:38:04.422Z,101153.06
2022-07-25T22:41:04.691Z,100980.28
2022-07-25T22:43:58.453Z,101130.19
2022-07-25T22:46:48.404Z,100975.13
2022-07-25T22:49:41.723Z,101130.81
2022-07-25T22:55:20.747Z,101191.03
2022-07-25T22:58:19.618Z,101198.91
2022-07-25T23:01:02.630Z,101079.03
2022-07-25T23:06:37.939Z,101153.25
2022-07-25T23:09:24.591Z,101138.56
2022-07-25T23:12:12.948Z,101070.94
2022-07-25T23:20:35.513Z,101059.63
2022-07-25T23:23:39.546Z,101090.66
2022-07-25T23:26:12.564Z,101190.22
2022-07-25T23:28:44.340Z,101129.38
2022-07-25T23:31:20.496Z,101204.41
2022-07-25T23:33:51.654Z,100989.31
2022-07-25T23:36:33.799Z,101156.16
2022-07-25T23:39:26.969Z,101197.00
2022-07-25T23:41:56.407Z,101029.78
2022-07-25T23:44:23.817Z,101164.88
2022-07-25T23:47:21.221Z,101190.41
2022-07-25T23:50:10.023Z,101020.56
2022-07-25T23:59:08.103Z,101212.66
